sensor_id;sensor_type;location;lat;lon;timestamp;P1;durP1;ratioP1;P2;durP2;ratioP2
51124;SDS011;37163;55.556;39.108;2023-04-24T00:00:43;12.80;;;5.78;;
51124;SDS011;37163;55.556;39.108;2023-04-24T00:03:10;8.15;;;5.00;;
51124;SDS011;37163;55.556;39.108;2023-04-24T00:05:38;10.45;;;5.95;;
51124;SDS011;37163;55.556;39.108;2023-04-24T00:08:06;11.77;;;5.68;;
51124;SDS011;37163;55.556;39.108;2023-04-24T00:10:32;10.07;;;5.88;;
51124;SDS011;37163;55.556;39.108;2023-04-24T00:12:59;10.82;;;6.05;;
51124;SDS011;37163;55.556;39.108;2023-04-24T00:15:25;10.38;;;5.70;;
51124;SDS011;37163;55.556;39.108;2023-04-24T00:17:52;8.85;;;5.28;;
51124;SDS011;37163;55.556;39.108;2023-04-24T00:20:19;18.83;;;6.30;;
51124;SDS011;37163;55.556;39.108;2023-04-24T00:22:45;10.05;;;5.88;;
51124;SDS011;37163;55.556;39.108;2023-04-24T00:25:12;13.60;;;6.50;;
51124;SDS011;37163;55.556;39.108;2023-04-24T00:27:38;9.70;;;5.32;;
51124;SDS011;37163;55.556;39.108;2023-04-24T00:30:05;10.07;;;5.95;;
51124;SDS011;37163;55.556;39.108;2023-04-24T00:32:32;10.80;;;5.68;;
51124;SDS011;37163;55.556;39.108;2023-04-24T00:34:58;11.15;;;6.30;;
51124;SDS011;37163;55.556;39.108;2023-04-24T00:37:25;12.80;;;6.28;;
51124;SDS011;37163;55.556;39.108;2023-04-24T00:39:51;13.70;;;6.97;;
51124;SDS011;37163;55.556;39.108;2023-04-24T00:42:18;13.55;;;5.68;;
51124;SDS011;37163;55.556;39.108;2023-04-24T00:44:44;8.88;;;5.88;;
51124;SDS011;37163;55.556;39.108;2023-04-24T00:47:11;12.68;;;5.47;;
51124;SDS011;37163;55.556;39.108;2023-04-24T00:49:39;12.50;;;6.93;;
51124;SDS011;37163;55.556;39.108;2023-04-24T00:52:05;8.23;;;5.40;;
51124;SDS011;37163;55.556;39.108;2023-04-24T00:54:35;13.27;;;6.95;;
51124;SDS011;37163;55.556;39.108;2023-04-24T00:57:02;12.32;;;6.88;;
51124;SDS011;37163;55.556;39.108;2023-04-24T00:59:29;11.32;;;5.90;;
51124;SDS011;37163;55.556;39.108;2023-04-24T01:01:56;11.07;;;6.18;;
51124;SDS011;37163;55.556;39.108;2023-04-24T01:04:23;8.95;;;5.25;;
51124;SDS011;37163;55.556;39.108;2023-04-24T01:06:51;13.15;;;6.30;;
51124;SDS011;37163;55.556;39.108;2023-04-24T01:09:18;9.65;;;5.82;;
51124;SDS011;37163;55.556;39.108;2023-04-24T01:11:45;11.82;;;5.93;;
51124;SDS011;37163;55.556;39.108;2023-04-24T01:14:11;11.25;;;4.97;;
51124;SDS011;37163;55.556;39.108;2023-04-24T01:16:38;18.88;;;6.13;;
51124;SDS011;37163;55.556;39.108;2023-04-24T01:19:08;11.30;;;5.85;;
51124;SDS011;37163;55.556;39.108;2023-04-24T01:21:36;9.98;;;5.65;;
51124;SDS011;37163;55.556;39.108;2023-04-24T01:24:04;10.77;;;6.18;;
51124;SDS011;37163;55.556;39.108;2023-04-24T01:26:31;9.75;;;6.00;;
51124;SDS011;37163;55.556;39.108;2023-04-24T01:28:58;12.20;;;6.07;;
51124;SDS011;37163;55.556;39.108;2023-04-24T01:31:24;10.70;;;5.63;;
51124;SDS011;37163;55.556;39.108;2023-04-24T01:33:51;11.52;;;5.63;;
51124;SDS011;37163;55.556;39.108;2023-04-24T01:36:18;8.70;;;5.07;;
51124;SDS011;37163;55.556;39.108;2023-04-24T01:38:44;17.15;;;6.10;;
51124;SDS011;37163;55.556;39.108;2023-04-24T01:41:11;8.68;;;5.03;;
51124;SDS011;37163;55.556;39.108;2023-04-24T01:43:37;10.57;;;6.22;;
51124;SDS011;37163;55.556;39.108;2023-04-24T01:46:03;12.15;;;6.38;;
51124;SDS011;37163;55.556;39.108;2023-04-24T01:48:30;8.75;;;5.80;;
51124;SDS011;37163;55.556;39.108;2023-04-24T01:50:57;10.80;;;6.30;;
51124;SDS011;37163;55.556;39.108;2023-04-24T01:53:23;8.63;;;5.63;;
51124;SDS011;37163;55.556;39.108;2023-04-24T01:55:50;9.13;;;5.53;;
51124;SDS011;37163;55.556;39.108;2023-04-24T01:58:16;10.13;;;5.72;;
51124;SDS011;37163;55.556;39.108;2023-04-24T02:00:43;12.60;;;5.45;;
51124;SDS011;37163;55.556;39.108;2023-04-24T02:03:09;13.50;;;5.90;;
51124;SDS011;37163;55.556;39.108;2023-04-24T02:05:35;9.55;;;5.20;;
51124;SDS011;37163;55.556;39.108;2023-04-24T02:08:03;14.52;;;5.43;;
51124;SDS011;37163;55.556;39.108;2023-04-24T02:10:29;8.25;;;5.43;;
51124;SDS011;37163;55.556;39.108;2023-04-24T02:12:59;9.98;;;6.00;;
51124;SDS011;37163;55.556;39.108;2023-04-24T02:15:26;10.40;;;6.07;;
51124;SDS011;37163;55.556;39.108;2023-04-24T02:17:53;10.27;;;6.00;;
51124;SDS011;37163;55.556;39.108;2023-04-24T02:20:19;10.65;;;6.65;;
51124;SDS011;37163;55.556;39.108;2023-04-24T02:22:46;12.32;;;6.13;;
51124;SDS011;37163;55.556;39.108;2023-04-24T02:25:13;12.43;;;6.15;;
51124;SDS011;37163;55.556;39.108;2023-04-24T02:27:39;10.35;;;5.65;;
51124;SDS011;37163;55.556;39.108;2023-04-24T02:30:06;10.90;;;6.03;;
51124;SDS011;37163;55.556;39.108;2023-04-24T02:32:33;10.40;;;6.60;;
51124;SDS011;37163;55.556;39.108;2023-04-24T02:35:00;8.95;;;5.20;;
51124;SDS011;37163;55.556;39.108;2023-04-24T02:37:29;11.25;;;6.38;;
51124;SDS011;37163;55.556;39.108;2023-04-24T02:39:55;11.98;;;5.85;;
51124;SDS011;37163;55.556;39.108;2023-04-24T02:42:22;9.60;;;5.00;;
51124;SDS011;37163;55.556;39.108;2023-04-24T02:44:48;11.15;;;6.07;;
51124;SDS011;37163;55.556;39.108;2023-04-24T02:47:17;11.27;;;5.82;;
51124;SDS011;37163;55.556;39.108;2023-04-24T02:49:45;9.07;;;5.32;;
51124;SDS011;37163;55.556;39.108;2023-04-24T02:52:11;10.02;;;5.35;;
51124;SDS011;37163;55.556;39.108;2023-04-24T02:54:39;9.52;;;5.10;;
51124;SDS011;37163;55.556;39.108;2023-04-24T02:57:05;9.25;;;5.35;;
51124;SDS011;37163;55.556;39.108;2023-04-24T02:59:33;9.95;;;5.43;;
51124;SDS011;37163;55.556;39.108;2023-04-24T03:02:00;9.88;;;5.90;;
51124;SDS011;37163;55.556;39.108;2023-04-24T03:04:27;8.52;;;4.88;;
51124;SDS011;37163;55.556;39.108;2023-04-24T03:06:54;9.57;;;5.63;;
51124;SDS011;37163;55.556;39.108;2023-04-24T03:09:21;10.73;;;5.95;;
51124;SDS011;37163;55.556;39.108;2023-04-24T03:11:47;10.95;;;5.88;;
51124;SDS011;37163;55.556;39.108;2023-04-24T03:14:15;7.20;;;5.35;;
51124;SDS011;37163;55.556;39.108;2023-04-24T03:16:42;8.32;;;5.38;;
51124;SDS011;37163;55.556;39.108;2023-04-24T03:19:09;8.43;;;4.38;;
51124;SDS011;37163;55.556;39.108;2023-04-24T03:21:43;11.30;;;5.43;;
51124;SDS011;37163;55.556;39.108;2023-04-24T03:24:10;8.75;;;4.88;;
51124;SDS011;37163;55.556;39.108;2023-04-24T03:26:37;8.45;;;5.22;;
51124;SDS011;37163;55.556;39.108;2023-04-24T03:29:17;8.60;;;4.68;;
51124;SDS011;37163;55.556;39.108;2023-04-24T03:31:44;9.63;;;5.20;;
51124;SDS011;37163;55.556;39.108;2023-04-24T03:34:11;11.27;;;5.28;;
51124;SDS011;37163;55.556;39.108;2023-04-24T03:36:38;10.13;;;4.72;;
51124;SDS011;37163;55.556;39.108;2023-04-24T03:39:06;8.30;;;5.03;;
51124;SDS011;37163;55.556;39.108;2023-04-24T03:41:34;7.97;;;5.18;;
51124;SDS011;37163;55.556;39.108;2023-04-24T03:44:14;7.15;;;4.95;;
51124;SDS011;37163;55.556;39.108;2023-04-24T03:46:41;6.90;;;4.78;;
51124;SDS011;37163;55.556;39.108;2023-04-24T03:49:08;8.85;;;5.47;;
51124;SDS011;37163;55.556;39.108;2023-04-24T03:51:38;8.80;;;5.40;;
51124;SDS011;37163;55.556;39.108;2023-04-24T03:54:17;8.60;;;5.07;;
51124;SDS011;37163;55.556;39.108;2023-04-24T03:56:45;8.57;;;5.03;;
51124;SDS011;37163;55.556;39.108;2023-04-24T03:59:12;8.85;;;5.68;;
51124;SDS011;37163;55.556;39.108;2023-04-24T04:01:41;9.43;;;5.90;;
51124;SDS011;37163;55.556;39.108;2023-04-24T04:04:13;8.93;;;5.32;;
51124;SDS011;37163;55.556;39.108;2023-04-24T04:06:41;9.10;;;5.75;;
51124;SDS011;37163;55.556;39.108;2023-04-24T04:09:08;8.35;;;5.32;;
51124;SDS011;37163;55.556;39.108;2023-04-24T04:11:35;9.60;;;6.28;;
51124;SDS011;37163;55.556;39.108;2023-04-24T04:14:03;9.32;;;6.25;;
51124;SDS011;37163;55.556;39.108;2023-04-24T04:16:31;8.32;;;6.68;;
51124;SDS011;37163;55.556;39.108;2023-04-24T04:19:02;8.27;;;6.47;;
51124;SDS011;37163;55.556;39.108;2023-04-24T04:21:29;7.80;;;5.55;;
51124;SDS011;37163;55.556;39.108;2023-04-24T04:24:08;7.28;;;5.45;;
51124;SDS011;37163;55.556;39.108;2023-04-24T04:26:38;8.13;;;5.70;;
51124;SDS011;37163;55.556;39.108;2023-04-24T04:29:09;9.05;;;5.90;;
51124;SDS011;37163;55.556;39.108;2023-04-24T04:31:41;9.25;;;6.57;;
51124;SDS011;37163;55.556;39.108;2023-04-24T04:34:11;9.63;;;6.18;;
51124;SDS011;37163;55.556;39.108;2023-04-24T04:36:40;9.93;;;6.80;;
51124;SDS011;37163;55.556;39.108;2023-04-24T04:39:39;9.18;;;6.43;;
51124;SDS011;37163;55.556;39.108;2023-04-24T04:42:11;13.35;;;8.80;;
51124;SDS011;37163;55.556;39.108;2023-04-24T04:44:42;10.23;;;6.20;;
51124;SDS011;37163;55.556;39.108;2023-04-24T04:47:16;14.80;;;9.80;;
51124;SDS011;37163;55.556;39.108;2023-04-24T04:49:43;11.75;;;7.03;;
51124;SDS011;37163;55.556;39.108;2023-04-24T04:52:22;8.40;;;6.85;;
51124;SDS011;37163;55.556;39.108;2023-04-24T04:54:56;8.23;;;6.88;;
51124;SDS011;37163;55.556;39.108;2023-04-24T04:57:30;9.45;;;7.00;;
51124;SDS011;37163;55.556;39.108;2023-04-24T04:59:57;13.02;;;8.93;;
51124;SDS011;37163;55.556;39.108;2023-04-24T05:02:37;13.45;;;9.95;;
51124;SDS011;37163;55.556;39.108;2023-04-24T05:05:05;11.05;;;7.97;;
51124;SDS011;37163;55.556;39.108;2023-04-24T05:07:31;11.18;;;7.35;;
51124;SDS011;37163;55.556;39.108;2023-04-24T05:09:58;14.30;;;9.48;;
51124;SDS011;37163;55.556;39.108;2023-04-24T05:12:24;12.10;;;8.98;;
51124;SDS011;37163;55.556;39.108;2023-04-24T05:14:52;12.57;;;9.18;;
51124;SDS011;37163;55.556;39.108;2023-04-24T05:17:19;11.93;;;9.55;;
51124;SDS011;37163;55.556;39.108;2023-04-24T05:19:46;13.95;;;9.15;;
51124;SDS011;37163;55.556;39.108;2023-04-24T05:22:16;13.05;;;7.90;;
51124;SDS011;37163;55.556;39.108;2023-04-24T05:24:49;11.20;;;8.57;;
51124;SDS011;37163;55.556;39.108;2023-04-24T05:27:29;12.77;;;8.15;;
51124;SDS011;37163;55.556;39.108;2023-04-24T05:29:56;11.05;;;7.55;;
51124;SDS011;37163;55.556;39.108;2023-04-24T05:32:23;10.45;;;6.93;;
51124;SDS011;37163;55.556;39.108;2023-04-24T05:34:50;9.32;;;6.97;;
51124;SDS011;37163;55.556;39.108;2023-04-24T05:37:16;11.90;;;7.55;;
51124;SDS011;37163;55.556;39.108;2023-04-24T05:39:43;11.02;;;6.45;;
51124;SDS011;37163;55.556;39.108;2023-04-24T05:42:10;10.52;;;6.38;;
51124;SDS011;37163;55.556;39.108;2023-04-24T05:44:36;9.40;;;6.55;;
51124;SDS011;37163;55.556;39.108;2023-04-24T05:47:03;9.05;;;5.43;;
51124;SDS011;37163;55.556;39.108;2023-04-24T05:49:31;9.70;;;6.13;;
51124;SDS011;37163;55.556;39.108;2023-04-24T05:51:58;9.70;;;5.50;;
51124;SDS011;37163;55.556;39.108;2023-04-24T05:54:24;9.35;;;5.97;;
51124;SDS011;37163;55.556;39.108;2023-04-24T05:56:51;9.73;;;5.80;;
51124;SDS011;37163;55.556;39.108;2023-04-24T05:59:30;7.85;;;4.90;;
51124;SDS011;37163;55.556;39.108;2023-04-24T06:01:57;10.98;;;5.55;;
51124;SDS011;37163;55.556;39.108;2023-04-24T06:04:24;6.38;;;4.85;;
51124;SDS011;37163;55.556;39.108;2023-04-24T06:06:50;7.55;;;5.50;;
51124;SDS011;37163;55.556;39.108;2023-04-24T06:09:22;7.93;;;5.75;;
51124;SDS011;37163;55.556;39.108;2023-04-24T06:11:49;7.55;;;5.18;;
51124;SDS011;37163;55.556;39.108;2023-04-24T06:14:20;11.10;;;5.70;;
51124;SDS011;37163;55.556;39.108;2023-04-24T06:17:05;7.32;;;5.53;;
51124;SDS011;37163;55.556;39.108;2023-04-24T06:19:36;8.68;;;5.70;;
51124;SDS011;37163;55.556;39.108;2023-04-24T06:22:03;7.95;;;5.25;;
51124;SDS011;37163;55.556;39.108;2023-04-24T06:24:30;7.68;;;5.13;;
51124;SDS011;37163;55.556;39.108;2023-04-24T06:26:57;8.43;;;5.47;;
51124;SDS011;37163;55.556;39.108;2023-04-24T06:29:25;8.50;;;5.50;;
51124;SDS011;37163;55.556;39.108;2023-04-24T06:31:52;7.43;;;5.15;;
51124;SDS011;37163;55.556;39.108;2023-04-24T06:34:18;7.65;;;4.75;;
51124;SDS011;37163;55.556;39.108;2023-04-24T06:36:46;7.00;;;4.28;;
51124;SDS011;37163;55.556;39.108;2023-04-24T06:39:12;6.60;;;4.60;;
51124;SDS011;37163;55.556;39.108;2023-04-24T06:41:39;8.13;;;4.30;;
51124;SDS011;37163;55.556;39.108;2023-04-24T06:44:08;5.28;;;3.53;;
51124;SDS011;37163;55.556;39.108;2023-04-24T06:46:34;7.28;;;3.75;;
51124;SDS011;37163;55.556;39.108;2023-04-24T06:49:01;7.50;;;3.60;;
51124;SDS011;37163;55.556;39.108;2023-04-24T06:51:28;7.28;;;3.72;;
51124;SDS011;37163;55.556;39.108;2023-04-24T06:53:55;5.57;;;3.60;;
51124;SDS011;37163;55.556;39.108;2023-04-24T06:56:24;4.63;;;3.38;;
51124;SDS011;37163;55.556;39.108;2023-04-24T06:58:51;5.05;;;3.67;;
51124;SDS011;37163;55.556;39.108;2023-04-24T07:01:19;5.80;;;3.40;;
51124;SDS011;37163;55.556;39.108;2023-04-24T07:03:45;5.07;;;3.63;;
51124;SDS011;37163;55.556;39.108;2023-04-24T07:06:12;6.95;;;3.80;;
51124;SDS011;37163;55.556;39.108;2023-04-24T07:08:38;5.88;;;3.50;;
51124;SDS011;37163;55.556;39.108;2023-04-24T07:11:05;5.72;;;3.55;;
51124;SDS011;37163;55.556;39.108;2023-04-24T07:13:31;5.75;;;3.42;;
51124;SDS011;37163;55.556;39.108;2023-04-24T07:15:58;6.60;;;3.40;;
51124;SDS011;37163;55.556;39.108;2023-04-24T07:18:24;5.25;;;3.35;;
51124;SDS011;37163;55.556;39.108;2023-04-24T07:20:51;6.30;;;3.30;;
51124;SDS011;37163;55.556;39.108;2023-04-24T07:23:21;7.63;;;3.38;;
51124;SDS011;37163;55.556;39.108;2023-04-24T07:25:47;4.47;;;3.40;;
51124;SDS011;37163;55.556;39.108;2023-04-24T07:28:14;6.70;;;3.92;;
51124;SDS011;37163;55.556;39.108;2023-04-24T07:30:40;6.22;;;3.80;;
51124;SDS011;37163;55.556;39.108;2023-04-24T07:33:07;6.57;;;3.78;;
51124;SDS011;37163;55.556;39.108;2023-04-24T07:35:33;5.82;;;3.40;;
51124;SDS011;37163;55.556;39.108;2023-04-24T07:38:01;6.20;;;3.63;;
51124;SDS011;37163;55.556;39.108;2023-04-24T07:40:27;5.50;;;3.40;;
51124;SDS011;37163;55.556;39.108;2023-04-24T07:42:54;7.47;;;4.13;;
51124;SDS011;37163;55.556;39.108;2023-04-24T07:45:21;8.40;;;3.50;;
51124;SDS011;37163;55.556;39.108;2023-04-24T07:47:49;5.55;;;3.05;;
51124;SDS011;37163;55.556;39.108;2023-04-24T07:50:16;6.10;;;3.17;;
51124;SDS011;37163;55.556;39.108;2023-04-24T07:52:42;7.22;;;3.10;;
51124;SDS011;37163;55.556;39.108;2023-04-24T07:55:09;5.68;;;3.15;;
51124;SDS011;37163;55.556;39.108;2023-04-24T07:57:36;5.78;;;3.25;;
51124;SDS011;37163;55.556;39.108;2023-04-24T08:00:03;7.63;;;3.55;;
51124;SDS011;37163;55.556;39.108;2023-04-24T08:02:37;6.40;;;3.63;;
51124;SDS011;37163;55.556;39.108;2023-04-24T08:05:04;3.95;;;2.80;;
51124;SDS011;37163;55.556;39.108;2023-04-24T08:07:31;6.25;;;3.65;;
51124;SDS011;37163;55.556;39.108;2023-04-24T08:09:57;5.95;;;3.70;;
51124;SDS011;37163;55.556;39.108;2023-04-24T08:12:25;12.70;;;7.10;;
51124;SDS011;37163;55.556;39.108;2023-04-24T08:14:51;10.27;;;4.78;;
51124;SDS011;37163;55.556;39.108;2023-04-24T08:17:18;4.90;;;3.33;;
51124;SDS011;37163;55.556;39.108;2023-04-24T08:19:44;6.32;;;3.28;;
51124;SDS011;37163;55.556;39.108;2023-04-24T08:22:14;6.00;;;3.33;;
51124;SDS011;37163;55.556;39.108;2023-04-24T08:24:42;6.75;;;3.50;;
51124;SDS011;37163;55.556;39.108;2023-04-24T08:27:09;5.55;;;3.67;;
51124;SDS011;37163;55.556;39.108;2023-04-24T08:29:36;5.15;;;3.10;;
51124;SDS011;37163;55.556;39.108;2023-04-24T08:32:03;8.65;;;4.30;;
51124;SDS011;37163;55.556;39.108;2023-04-24T08:34:29;7.03;;;3.33;;
51124;SDS011;37163;55.556;39.108;2023-04-24T08:36:56;5.20;;;3.22;;
51124;SDS011;37163;55.556;39.108;2023-04-24T08:39:22;8.23;;;2.97;;
51124;SDS011;37163;55.556;39.108;2023-04-24T08:41:49;5.53;;;3.60;;
51124;SDS011;37163;55.556;39.108;2023-04-24T08:44:16;7.18;;;3.00;;
51124;SDS011;37163;55.556;39.108;2023-04-24T08:46:44;9.27;;;3.65;;
51124;SDS011;37163;55.556;39.108;2023-04-24T08:49:13;6.75;;;3.40;;
51124;SDS011;37163;55.556;39.108;2023-04-24T08:51:43;10.60;;;3.22;;
51124;SDS011;37163;55.556;39.108;2023-04-24T08:54:12;6.43;;;3.10;;
51124;SDS011;37163;55.556;39.108;2023-04-24T08:56:40;6.07;;;3.08;;
51124;SDS011;37163;55.556;39.108;2023-04-24T08:59:06;5.63;;;2.80;;
51124;SDS011;37163;55.556;39.108;2023-04-24T09:01:33;5.45;;;2.72;;
51124;SDS011;37163;55.556;39.108;2023-04-24T09:04:03;7.22;;;3.15;;
51124;SDS011;37163;55.556;39.108;2023-04-24T09:06:30;5.13;;;2.70;;
51124;SDS011;37163;55.556;39.108;2023-04-24T09:08:59;6.07;;;3.67;;
51124;SDS011;37163;55.556;39.108;2023-04-24T09:11:27;6.97;;;3.38;;
51124;SDS011;37163;55.556;39.108;2023-04-24T09:13:54;4.80;;;2.95;;
51124;SDS011;37163;55.556;39.108;2023-04-24T09:16:21;4.22;;;2.83;;
51124;SDS011;37163;55.556;39.108;2023-04-24T09:18:50;6.38;;;2.90;;
51124;SDS011;37163;55.556;39.108;2023-04-24T09:21:17;7.88;;;2.97;;
51124;SDS011;37163;55.556;39.108;2023-04-24T09:23:43;4.63;;;2.80;;
51124;SDS011;37163;55.556;39.108;2023-04-24T09:26:10;4.90;;;2.80;;
51124;SDS011;37163;55.556;39.108;2023-04-24T09:28:38;4.55;;;2.72;;
51124;SDS011;37163;55.556;39.108;2023-04-24T09:31:07;8.85;;;3.17;;
51124;SDS011;37163;55.556;39.108;2023-04-24T09:33:35;10.40;;;3.22;;
51124;SDS011;37163;55.556;39.108;2023-04-24T09:36:02;10.02;;;3.28;;
51124;SDS011;37163;55.556;39.108;2023-04-24T09:38:36;5.82;;;2.97;;
51124;SDS011;37163;55.556;39.108;2023-04-24T09:41:07;6.43;;;3.00;;
51124;SDS011;37163;55.556;39.108;2023-04-24T09:43:34;8.07;;;4.75;;
51124;SDS011;37163;55.556;39.108;2023-04-24T09:46:05;8.90;;;4.20;;
51124;SDS011;37163;55.556;39.108;2023-04-24T09:48:36;6.93;;;3.40;;
51124;SDS011;37163;55.556;39.108;2023-04-24T09:51:04;6.43;;;3.40;;
51124;SDS011;37163;55.556;39.108;2023-04-24T09:53:32;8.70;;;3.10;;
51124;SDS011;37163;55.556;39.108;2023-04-24T09:56:05;6.10;;;2.92;;
51124;SDS011;37163;55.556;39.108;2023-04-24T09:58:36;9.40;;;2.65;;
51124;SDS011;37163;55.556;39.108;2023-04-24T10:01:02;5.68;;;3.03;;
51124;SDS011;37163;55.556;39.108;2023-04-24T10:03:29;4.93;;;2.90;;
51124;SDS011;37163;55.556;39.108;2023-04-24T10:05:59;7.05;;;3.25;;
51124;SDS011;37163;55.556;39.108;2023-04-24T10:08:35;4.13;;;2.92;;
51124;SDS011;37163;55.556;39.108;2023-04-24T10:11:03;5.80;;;3.08;;
51124;SDS011;37163;55.556;39.108;2023-04-24T10:13:29;7.20;;;3.50;;
51124;SDS011;37163;55.556;39.108;2023-04-24T10:15:56;5.53;;;2.90;;
51124;SDS011;37163;55.556;39.108;2023-04-24T10:18:26;7.43;;;2.88;;
51124;SDS011;37163;55.556;39.108;2023-04-24T10:20:53;6.25;;;3.53;;
51124;SDS011;37163;55.556;39.108;2023-04-24T10:23:20;10.77;;;5.65;;
51124;SDS011;37163;55.556;39.108;2023-04-24T10:25:47;6.10;;;3.15;;
51124;SDS011;37163;55.556;39.108;2023-04-24T10:28:15;5.85;;;2.80;;
51124;SDS011;37163;55.556;39.108;2023-04-24T10:30:42;3.88;;;2.47;;
51124;SDS011;37163;55.556;39.108;2023-04-24T10:33:09;4.00;;;2.63;;
51124;SDS011;37163;55.556;39.108;2023-04-24T10:35:37;7.38;;;2.92;;
51124;SDS011;37163;55.556;39.108;2023-04-24T10:38:06;4.00;;;2.97;;
51124;SDS011;37163;55.556;39.108;2023-04-24T10:40:35;5.30;;;2.60;;
51124;SDS011;37163;55.556;39.108;2023-04-24T10:43:03;5.80;;;2.60;;
51124;SDS011;37163;55.556;39.108;2023-04-24T10:45:34;6.78;;;2.30;;
51124;SDS011;37163;55.556;39.108;2023-04-24T10:48:01;5.20;;;2.53;;
51124;SDS011;37163;55.556;39.108;2023-04-24T10:51:14;4.80;;;3.03;;
51124;SDS011;37163;55.556;39.108;2023-04-24T10:53:20;5.50;;;2.72;;
51124;SDS011;37163;55.556;39.108;2023-04-24T10:56:05;5.50;;;2.65;;
51124;SDS011;37163;55.556;39.108;2023-04-24T10:58:37;5.05;;;2.85;;
51124;SDS011;37163;55.556;39.108;2023-04-24T11:01:04;5.38;;;2.95;;
51124;SDS011;37163;55.556;39.108;2023-04-24T11:03:31;8.02;;;3.67;;
51124;SDS011;37163;55.556;39.108;2023-04-24T11:06:06;4.97;;;3.05;;
51124;SDS011;37163;55.556;39.108;2023-04-24T11:08:43;5.13;;;2.83;;
51124;SDS011;37163;55.556;39.108;2023-04-24T11:11:12;6.95;;;2.70;;
51124;SDS011;37163;55.556;39.108;2023-04-24T11:24:31;6.88;;;2.72;;
51124;SDS011;37163;55.556;39.108;2023-04-24T11:27:21;5.13;;;3.03;;
51124;SDS011;37163;55.556;39.108;2023-04-24T11:35:01;5.13;;;2.78;;
51124;SDS011;37163;55.556;39.108;2023-04-24T11:37:51;4.80;;;2.70;;
51124;SDS011;37163;55.556;39.108;2023-04-24T11:40:19;4.50;;;2.45;;
51124;SDS011;37163;55.556;39.108;2023-04-24T11:42:49;4.78;;;2.60;;
51124;SDS011;37163;55.556;39.108;2023-04-24T11:45:18;5.05;;;2.75;;
51124;SDS011;37163;55.556;39.108;2023-04-24T11:47:49;5.55;;;2.97;;
51124;SDS011;37163;55.556;39.108;2023-04-24T11:50:16;4.18;;;2.90;;
51124;SDS011;37163;55.556;39.108;2023-04-24T11:52:47;6.43;;;3.03;;
51124;SDS011;37163;55.556;39.108;2023-04-24T11:57:45;4.22;;;2.72;;
51124;SDS011;37163;55.556;39.108;2023-04-24T12:00:17;5.10;;;2.70;;
51124;SDS011;37163;55.556;39.108;2023-04-24T12:02:48;4.60;;;2.58;;
51124;SDS011;37163;55.556;39.108;2023-04-24T12:05:22;4.28;;;2.58;;
51124;SDS011;37163;55.556;39.108;2023-04-24T12:07:50;9.15;;;3.47;;
51124;SDS011;37163;55.556;39.108;2023-04-24T12:10:24;6.10;;;2.92;;
51124;SDS011;37163;55.556;39.108;2023-04-24T12:12:51;6.78;;;3.55;;
51124;SDS011;37163;55.556;39.108;2023-04-24T12:15:19;5.07;;;3.08;;
51124;SDS011;37163;55.556;39.108;2023-04-24T12:17:46;7.22;;;3.40;;
51124;SDS011;37163;55.556;39.108;2023-04-24T12:20:13;5.25;;;2.83;;
51124;SDS011;37163;55.556;39.108;2023-04-24T12:22:58;5.75;;;2.78;;
51124;SDS011;37163;55.556;39.108;2023-04-24T12:25:30;5.28;;;3.05;;
51124;SDS011;37163;55.556;39.108;2023-04-24T12:30:48;5.57;;;3.00;;
51124;SDS011;37163;55.556;39.108;2023-04-24T12:33:19;6.18;;;3.08;;
51124;SDS011;37163;55.556;39.108;2023-04-24T12:35:47;5.47;;;2.72;;
51124;SDS011;37163;55.556;39.108;2023-04-24T12:38:21;6.75;;;2.80;;
51124;SDS011;37163;55.556;39.108;2023-04-24T12:41:01;6.82;;;3.40;;
51124;SDS011;37163;55.556;39.108;2023-04-24T12:43:34;6.60;;;3.25;;
51124;SDS011;37163;55.556;39.108;2023-04-24T12:46:01;7.70;;;2.97;;
51124;SDS011;37163;55.556;39.108;2023-04-24T12:48:29;6.00;;;2.97;;
51124;SDS011;37163;55.556;39.108;2023-04-24T12:50:59;5.60;;;3.08;;
51124;SDS011;37163;55.556;39.108;2023-04-24T12:53:29;8.95;;;3.55;;
51124;SDS011;37163;55.556;39.108;2023-04-24T12:55:56;5.22;;;2.88;;
51124;SDS011;37163;55.556;39.108;2023-04-24T12:58:23;7.82;;;3.05;;
51124;SDS011;37163;55.556;39.108;2023-04-24T13:00:50;7.63;;;3.35;;
51124;SDS011;37163;55.556;39.108;2023-04-24T13:03:16;6.40;;;3.50;;
51124;SDS011;37163;55.556;39.108;2023-04-24T13:05:43;5.32;;;3.45;;
51124;SDS011;37163;55.556;39.108;2023-04-24T13:08:10;5.05;;;2.92;;
51124;SDS011;37163;55.556;39.108;2023-04-24T13:10:38;6.40;;;3.80;;
51124;SDS011;37163;55.556;39.108;2023-04-24T13:13:06;4.45;;;3.08;;
51124;SDS011;37163;55.556;39.108;2023-04-24T13:15:33;6.20;;;3.00;;
51124;SDS011;37163;55.556;39.108;2023-04-24T13:18:00;5.63;;;3.25;;
51124;SDS011;37163;55.556;39.108;2023-04-24T13:20:27;5.85;;;3.05;;
51124;SDS011;37163;55.556;39.108;2023-04-24T13:22:54;5.65;;;3.00;;
51124;SDS011;37163;55.556;39.108;2023-04-24T13:25:20;6.53;;;3.00;;
51124;SDS011;37163;55.556;39.108;2023-04-24T13:27:48;5.45;;;2.60;;
51124;SDS011;37163;55.556;39.108;2023-04-24T13:30:15;7.18;;;3.15;;
51124;SDS011;37163;55.556;39.108;2023-04-24T13:32:42;7.07;;;3.08;;
51124;SDS011;37163;55.556;39.108;2023-04-24T13:35:09;6.82;;;3.22;;
51124;SDS011;37163;55.556;39.108;2023-04-24T13:37:35;7.75;;;3.17;;
51124;SDS011;37163;55.556;39.108;2023-04-24T13:40:02;5.45;;;3.08;;
51124;SDS011;37163;55.556;39.108;2023-04-24T13:42:31;5.55;;;2.95;;
51124;SDS011;37163;55.556;39.108;2023-04-24T13:44:58;6.45;;;2.90;;
51124;SDS011;37163;55.556;39.108;2023-04-24T13:47:25;7.03;;;3.80;;
51124;SDS011;37163;55.556;39.108;2023-04-24T13:49:51;9.02;;;3.20;;
51124;SDS011;37163;55.556;39.108;2023-04-24T13:52:21;4.68;;;3.00;;
51124;SDS011;37163;55.556;39.108;2023-04-24T13:54:47;7.90;;;3.30;;
51124;SDS011;37163;55.556;39.108;2023-04-24T13:57:14;6.40;;;3.05;;
51124;SDS011;37163;55.556;39.108;2023-04-24T13:59:41;7.93;;;3.13;;
51124;SDS011;37163;55.556;39.108;2023-04-24T14:02:08;7.85;;;3.47;;
51124;SDS011;37163;55.556;39.108;2023-04-24T14:04:34;6.70;;;3.20;;
51124;SDS011;37163;55.556;39.108;2023-04-24T14:07:01;6.85;;;3.03;;
51124;SDS011;37163;55.556;39.108;2023-04-24T14:09:27;5.30;;;2.88;;
51124;SDS011;37163;55.556;39.108;2023-04-24T14:11:54;7.10;;;3.10;;
51124;SDS011;37163;55.556;39.108;2023-04-24T14:14:21;6.63;;;3.00;;
51124;SDS011;37163;55.556;39.108;2023-04-24T14:16:48;7.15;;;2.97;;
51124;SDS011;37163;55.556;39.108;2023-04-24T14:19:14;6.57;;;3.10;;
51124;SDS011;37163;55.556;39.108;2023-04-24T14:21:41;7.47;;;3.33;;
51124;SDS011;37163;55.556;39.108;2023-04-24T14:24:07;8.38;;;3.00;;
51124;SDS011;37163;55.556;39.108;2023-04-24T14:26:35;5.35;;;3.17;;
51124;SDS011;37163;55.556;39.108;2023-04-24T14:29:01;5.72;;;3.08;;
51124;SDS011;37163;55.556;39.108;2023-04-24T14:31:28;8.52;;;3.25;;
51124;SDS011;37163;55.556;39.108;2023-04-24T14:33:54;5.93;;;3.28;;
51124;SDS011;37163;55.556;39.108;2023-04-24T14:36:21;5.18;;;2.83;;
51124;SDS011;37163;55.556;39.108;2023-04-24T14:38:47;6.22;;;3.00;;
51124;SDS011;37163;55.556;39.108;2023-04-24T14:41:14;6.25;;;3.22;;
51124;SDS011;37163;55.556;39.108;2023-04-24T14:43:40;7.78;;;3.22;;
51124;SDS011;37163;55.556;39.108;2023-04-24T14:46:07;7.70;;;3.42;;
51124;SDS011;37163;55.556;39.108;2023-04-24T14:48:34;5.75;;;2.88;;
51124;SDS011;37163;55.556;39.108;2023-04-24T14:51:00;5.90;;;3.10;;
51124;SDS011;37163;55.556;39.108;2023-04-24T14:53:26;8.13;;;3.22;;
51124;SDS011;37163;55.556;39.108;2023-04-24T14:55:54;5.45;;;2.80;;
51124;SDS011;37163;55.556;39.108;2023-04-24T14:58:20;5.22;;;2.97;;